Time;durP1;ratioP1;P1;durP2;ratioP2;P2;SDS_P1;SDS_P2;PMS_P1;PMS_P2;Temp;Humidity;BMP_temperature;BMP_pressure;BME280_temperature;BME280_humidity;BME280_pressure;Samples;Min_cycle;Max_cycle;Signal;HPM_P1;HPM_P2
2021/03/07 00:00:18;;;;;;;9.60;3.80;;;;;;;2.89;82.67;102654.88;6272570;28;20090;-72
2021/03/07 00:03:19;;;;;;;7.72;1.88;;;;;;;2.78;82.72;102647.00;6272417;28;20130;-72
2021/03/07 00:06:20;;;;;;;8.55;1.85;;;;;;;2.88;82.65;102636.69;6272288;28;20072;-72
2021/03/07 00:09:20;;;;;;;8.38;1.80;;;;;;;2.76;82.20;102646.09;6273366;28;20055;-72
2021/03/07 00:12:21;;;;;;;4.22;1.85;;;;;;;2.77;82.26;102645.28;6273748;28;20073;-72
2021/03/07 00:15:24;;;;;;;11.20;2.00;;;;;;;2.90;81.35;102642.78;6273694;28;20052;-72
2021/03/07 00:18:24;;;;;;;5.80;1.67;;;;;;;2.83;80.92;102641.84;6273730;28;20084;-72
2021/03/07 00:21:25;;;;;;;4.47;1.92;;;;;;;2.79;81.26;102640.94;6273464;28;20052;-72
2021/03/07 00:24:26;;;;;;;5.18;1.63;;;;;;;2.88;81.16;102645.34;6273470;28;20106;-72
2021/03/07 00:27:27;;;;;;;8.23;1.70;;;;;;;2.80;80.68;102631.44;6273153;28;20056;-72
2021/03/07 00:30:29;;;;;;;4.60;1.80;;;;;;;2.80;80.85;102636.63;6273599;28;20460;-72
2021/03/07 00:33:29;;;;;;;11.52;1.92;;;;;;;2.89;79.88;102630.66;6272682;28;20052;-72
2021/03/07 00:36:30;;;;;;;7.80;1.92;;;;;;;2.77;81.10;102632.28;6273521;28;20132;-72
2021/03/07 00:39:31;;;;;;;8.85;1.80;;;;;;;2.91;78.99;102626.34;6273067;28;20052;-72
2021/03/07 00:42:32;;;;;;;6.25;1.92;;;;;;;2.85;79.61;102623.69;6272864;28;20049;-72
2021/03/07 00:45:34;;;;;;;2.70;1.50;;;;;;;2.79;79.65;102616.72;6273106;28;20524;-72
2021/03/07 00:48:34;;;;;;;6.00;2.00;;;;;;;2.60;80.13;102626.06;6272981;28;20103;-72
2021/03/07 00:51:36;;;;;;;5.43;1.70;;;;;;;2.58;81.47;102622.56;6272862;28;20072;-72
2021/03/07 00:54:37;;;;;;;10.50;2.13;;;;;;;2.52;81.62;102620.78;6272686;28;20045;-72
2021/03/07 00:57:38;;;;;;;7.55;1.73;;;;;;;2.73;80.15;102619.28;6272575;28;20068;-72
2021/03/07 01:00:41;;;;;;;5.97;1.80;;;;;;;2.52;81.46;102615.59;6272723;28;20103;-72
2021/03/07 01:03:42;;;;;;;4.68;1.33;;;;;;;2.68;81.25;102624.41;6272640;28;20041;-72
2021/03/07 01:06:43;;;;;;;8.60;1.52;;;;;;;2.51;81.55;102613.88;6273122;28;20136;-72
2021/03/07 01:09:44;;;;;;;5.18;1.73;;;;;;;2.45;81.52;102606.03;6272178;28;20558;-72
2021/03/07 01:12:47;;;;;;;2.75;1.42;;;;;;;2.31;82.08;102610.16;6272086;28;20132;-72
2021/03/07 01:15:49;;;;;;;9.30;3.17;;;;;;;2.39;82.36;102602.47;6272216;28;20103;-72
2021/03/07 01:18:50;;;;;;;5.80;1.60;;;;;;;2.42;82.73;102603.38;6272433;28;20053;-72
2021/03/07 01:21:51;;;;;;;8.20;1.98;;;;;;;2.32;82.63;102596.38;6272016;28;20048;-72
2021/03/07 01:24:52;;;;;;;4.45;2.05;;;;;;;2.20;82.46;102594.50;6272116;28;20041;-72
2021/03/07 01:27:53;;;;;;;4.30;1.95;;;;;;;2.13;83.77;102597.88;6271670;28;20122;-72
2021/03/07 01:30:55;;;;;;;4.80;2.10;;;;;;;2.05;84.46;102596.06;6272048;28;20107;-72
2021/03/07 01:33:56;;;;;;;8.73;2.15;;;;;;;2.05;84.05;102586.56;6271607;28;20413;-72
2021/03/07 01:36:57;;;;;;;7.45;2.08;;;;;;;2.03;84.93;102583.06;6272116;28;20060;-72
2021/03/07 01:39:58;;;;;;;7.97;1.77;;;;;;;2.15;84.35;102571.97;6271952;28;20486;-72
2021/03/07 01:43:00;;;;;;;11.43;4.55;;;;;;;2.11;84.01;102571.06;6271797;28;20132;-72
2021/03/07 01:46:03;;;;;;;6.55;1.98;;;;;;;1.91;85.72;102573.44;6271712;28;20045;-72
2021/03/07 01:49:04;;;;;;;9.13;2.15;;;;;;;2.21;84.87;102559.06;6271529;28;20059;-72
2021/03/07 01:52:05;;;;;;;6.10;2.58;;;;;;;1.91;85.32;102560.47;6271038;28;20053;-72
2021/03/07 01:55:07;;;;;;;5.93;2.33;;;;;;;1.92;86.08;102550.97;6271347;28;20063;-72
2021/03/07 01:58:10;;;;;;;5.65;2.60;;;;;;;1.86;85.55;102562.13;6271435;28;20103;-72
2021/03/07 02:01:11;;;;;;;5.80;2.30;;;;;;;1.88;85.69;102551.78;6271200;28;20052;-72
2021/03/07 02:04:12;;;;;;;4.22;2.25;;;;;;;1.88;86.06;102552.66;6271648;28;20072;-72
2021/03/07 02:07:13;;;;;;;7.63;2.47;;;;;;;2.07;85.10;102545.09;6271405;28;20049;-72
2021/03/07 02:10:17;;;;;;;9.15;2.63;;;;;;;2.00;85.84;102546.75;6271289;28;20053;-72
2021/03/07 02:13:21;;;;;;;7.45;2.55;;;;;;;2.11;85.40;102539.06;6271073;28;20045;-72
2021/03/07 02:16:25;;;;;;;6.90;2.80;;;;;;;1.93;85.42;102540.63;6271121;28;20052;-72
2021/03/07 02:19:33;;;;;;;7.03;2.35;;;;;;;2.18;84.61;102533.97;6271108;28;20413;-72
2021/03/07 02:22:36;;;;;;;14.15;2.45;;;;;;;1.99;85.14;102530.28;6270942;28;20579;-72
2021/03/07 02:25:38;;;;;;;8.25;2.65;;;;;;;2.09;85.87;102533.00;6270808;28;20049;-72
2021/03/07 02:28:39;;;;;;;5.18;2.13;;;;;;;1.98;85.69;102533.75;6270998;28;20048;-72
2021/03/07 02:31:43;;;;;;;6.38;2.30;;;;;;;1.79;86.51;102526.63;6270843;28;20056;-72
2021/03/07 02:34:49;;;;;;;9.48;2.63;;;;;;;1.89;86.25;102525.00;6270877;28;20052;-72
2021/03/07 02:37:55;;;;;;;9.82;2.83;;;;;;;1.91;86.51;102523.31;6271283;28;20064;-72
2021/03/07 02:40:59;;;;;;;10.40;2.72;;;;;;;1.85;85.94;102518.91;6270787;28;20057;-72
2021/03/07 02:44:03;;;;;;;7.43;2.78;;;;;;;1.95;86.01;102506.91;6271134;28;20060;-71
2021/03/07 02:47:05;;;;;;;5.22;2.65;;;;;;;1.83;86.29;102504.22;6270878;28;20049;-72
2021/03/07 02:50:10;;;;;;;8.15;2.92;;;;;;;1.86;86.48;102505.09;6271043;28;20049;-71
2021/03/07 02:53:17;;;;;;;11.10;3.05;;;;;;;1.81;86.46;102504.19;6270638;28;20049;-72
2021/03/07 02:56:22;;;;;;;7.93;2.88;;;;;;;1.73;86.94;102496.34;6270378;28;20471;-71
2021/03/07 02:59:27;;;;;;;8.60;2.67;;;;;;;1.79;86.71;102498.13;6270680;28;20067;-72
2021/03/07 03:02:31;;;;;;;11.93;3.15;;;;;;;1.76;87.26;102490.31;6273763;28;20053;-72
2021/03/07 03:05:32;;;;;;;6.22;2.50;;;;;;;1.76;87.85;102492.88;6275485;28;20494;-72
2021/03/07 03:08:35;;;;;;;6.90;2.42;;;;;;;1.67;87.25;102488.47;6275244;28;20048;-72
2021/03/07 03:11:39;;;;;;;10.35;2.75;;;;;;;1.80;87.90;102488.63;6275266;28;20056;-72
2021/03/07 03:14:42;;;;;;;4.43;2.50;;;;;;;1.91;86.80;102480.13;6274966;28;20041;-72
2021/03/07 03:17:44;;;;;;;12.60;3.13;;;;;;;1.64;87.41;102478.09;6274504;28;20049;-72
2021/03/07 03:20:45;;;;;;;8.50;2.90;;;;;;;1.60;88.89;102467.69;6274951;28;20055;-72
2021/03/07 03:23:47;;;;;;;11.55;3.30;;;;;;;1.70;87.97;102462.59;6274677;28;20420;-72
2021/03/07 03:26:49;;;;;;;9.02;3.30;;;;;;;1.67;88.27;102464.28;6274756;28;20106;-72
2021/03/07 03:29:51;;;;;;;11.50;4.38;;;;;;;1.76;88.29;102467.84;6274568;28;20501;-72
2021/03/07 03:32:52;;;;;;;7.78;3.03;;;;;;;1.71;88.01;102448.78;6274500;28;20049;-72
2021/03/07 03:35:53;;;;;;;9.32;3.15;;;;;;;1.82;87.29;102460.97;6274794;28;20079;-72
2021/03/07 03:38:57;;;;;;;7.75;3.25;;;;;;;1.55;88.29;102446.91;6273616;28;20057;-72
2021/03/07 03:42:02;;;;;;;10.25;2.80;;;;;;;1.79;88.06;102454.06;6273977;28;20048;-72
2021/03/07 03:45:05;;;;;;;8.38;3.50;;;;;;;1.72;88.47;102449.66;6274393;28;20493;-72
2021/03/07 03:48:09;;;;;;;8.52;3.20;;;;;;;1.59;88.25;102447.78;6274716;28;20048;-71
2021/03/07 03:51:10;;;;;;;10.68;3.55;;;;;;;1.57;88.09;102439.13;6274237;28;20060;-71
2021/03/07 03:54:12;;;;;;;11.95;3.17;;;;;;;1.67;88.37;102443.56;6274208;28;20118;-72
2021/03/07 03:57:18;;;;;;;15.07;3.83;;;;;;;1.68;88.22;102441.00;6274231;28;20049;-72
2021/03/07 04:00:21;;;;;;;8.35;3.53;;;;;;;1.56;88.90;102438.25;6273934;28;20386;-72
2021/03/07 04:03:24;;;;;;;17.42;4.38;;;;;;;1.50;88.94;102443.38;6273763;28;20493;-71
2021/03/07 04:06:27;;;;;;;12.60;3.70;;;;;;;1.50;89.00;102445.97;6274017;28;20048;-72
2021/03/07 04:09:28;;;;;;;12.20;4.13;;;;;;;1.50;89.36;102444.25;6274117;28;20045;-71
2021/03/07 04:12:30;;;;;;;7.82;3.28;;;;;;;1.43;89.10;102447.63;6272888;28;20057;-72
2021/03/07 04:15:31;;;;;;;12.27;4.30;;;;;;;1.47;89.74;102445.94;6273989;28;20053;-72
2021/03/07 04:18:33;;;;;;;9.20;3.45;;;;;;;1.45;89.92;102443.34;6273750;28;20048;-72
2021/03/07 04:21:38;;;;;;;9.02;3.65;;;;;;;1.52;89.17;102436.50;6273729;28;20053;-72
2021/03/07 04:24:39;;;;;;;13.68;3.80;;;;;;;1.50;89.64;102438.22;6273450;28;20049;-72
2021/03/07 04:27:41;;;;;;;13.65;4.22;;;;;;;1.43;90.01;102441.56;6273322;28;20545;-72
2021/03/07 04:30:42;;;;;;;9.45;3.78;;;;;;;1.51;88.16;102445.13;6273461;28;20078;-72
2021/03/07 04:33:43;;;;;;;5.50;3.40;;;;;;;1.50;88.28;102433.03;6273185;28;20045;-72
2021/03/07 04:36:45;;;;;;;13.18;3.80;;;;;;;1.48;88.75;102432.13;6273460;28;20072;-72
2021/03/07 04:39:46;;;;;;;9.02;3.83;;;;;;;1.43;89.03;102433.78;6273129;28;20256;-72
2021/03/07 04:42:48;;;;;;;13.25;3.28;;;;;;;1.52;88.12;102432.19;6273156;28;20059;-72
2021/03/07 04:45:49;;;;;;;11.57;3.33;;;;;;;1.55;88.33;102428.75;6272957;28;20529;-72
2021/03/07 04:48:50;;;;;;;10.02;3.55;;;;;;;1.60;88.13;102427.09;6273290;28;20049;-72
2021/03/07 04:51:51;;;;;;;9.77;3.13;;;;;;;1.38;88.80;102427.69;6272783;28;20045;-72
2021/03/07 04:54:52;;;;;;;13.20;3.50;;;;;;;1.44;88.72;102432.94;6273000;28;20048;-72
2021/03/07 04:57:54;;;;;;;10.38;3.38;;;;;;;1.34;88.98;102428.50;6272642;28;20048;-72
2021/03/07 05:00:55;;;;;;;11.13;3.50;;;;;;;1.41;88.45;102425.13;6272562;28;20053;-72
2021/03/07 05:03:55;;;;;;;14.38;3.95;;;;;;;1.39;87.54;102406.97;6272673;28;20128;-72
2021/03/07 05:06:56;;;;;;;7.70;3.38;;;;;;;1.50;86.27;102409.72;6272638;28;20072;-72
2021/03/07 05:09:57;;;;;;;8.80;3.88;;;;;;;1.51;86.22;102406.25;6272624;28;20048;-71
2021/03/07 05:12:59;;;;;;;7.10;2.88;;;;;;;1.35;86.53;102407.78;6272136;28;20048;-72
2021/03/07 05:16:00;;;;;;;8.10;3.13;;;;;;;1.45;85.73;102403.59;6272406;28;20049;-72
2021/03/07 05:19:01;;;;;;;11.38;3.15;;;;;;;1.38;85.73;102396.63;6272338;28;20049;-71
2021/03/07 05:22:02;;;;;;;4.55;2.70;;;;;;;1.34;84.63;102398.28;6272254;28;20056;-72
2021/03/07 05:25:03;;;;;;;8.85;2.38;;;;;;;1.48;84.65;102396.72;6270914;28;20045;-72
2021/03/07 05:28:05;;;;;;;10.95;2.92;;;;;;;1.46;83.49;102397.56;6272029;28;20045;-72
2021/03/07 05:31:06;;;;;;;5.95;2.92;;;;;;;1.59;83.17;102393.38;6271957;28;20060;-72
2021/03/07 05:34:07;;;;;;;7.53;2.70;;;;;;;1.42;84.70;102396.66;6271785;28;20045;-72
2021/03/07 05:37:08;;;;;;;8.85;3.10;;;;;;;1.35;83.83;102388.81;6272032;28;20095;-72
2021/03/07 05:40:09;;;;;;;10.90;2.60;;;;;;;1.50;83.40;102386.41;6271857;28;20071;-72
2021/03/07 05:43:11;;;;;;;8.27;2.70;;;;;;;1.37;84.05;102395.75;6271678;28;20052;-72
2021/03/07 05:46:12;;;;;;;6.43;2.95;;;;;;;1.25;84.42;102385.25;6271707;28;20057;-72
2021/03/07 05:49:13;;;;;;;24.83;9.80;;;;;;;1.29;84.11;102392.19;6271868;28;20060;-72
2021/03/07 05:52:15;;;;;;;13.52;4.68;;;;;;;1.55;83.77;102389.03;6271429;28;20059;-72
2021/03/07 05:55:16;;;;;;;6.63;2.55;;;;;;;1.46;83.13;102385.50;6271565;28;20048;-72
2021/03/07 05:58:19;;;;;;;9.05;3.05;;;;;;;1.47;82.45;102388.94;6271353;28;20053;-72
2021/03/07 06:01:20;;;;;;;6.93;3.10;;;;;;;1.35;82.83;102389.66;6271542;28;20048;-72
2021/03/07 06:04:21;;;;;;;5.93;2.70;;;;;;;1.46;82.22;102384.63;6271253;28;20467;-71
2021/03/07 06:07:22;;;;;;;6.05;2.30;;;;;;;1.44;81.85;102386.31;6271369;28;20136;-73
2021/03/07 06:10:24;;;;;;;5.38;3.05;;;;;;;1.61;82.24;102389.09;6271463;28;20084;-73
2021/03/07 06:13:36;;;;;;;5.78;2.38;;;;;;;1.63;81.91;102374.41;6270998;28;20095;-72
2021/03/07 06:16:37;;;;;;;7.57;2.40;;;;;;;1.39;82.87;102372.44;6271430;28;20045;-72
2021/03/07 06:19:57;;;;;;;6.63;2.35;;;;;;;1.52;82.79;102374.31;6271248;28;20072;-72
2021/03/07 06:23:00;;;;;;;2.75;2.17;;;;;;;1.54;82.13;102372.59;6271086;28;20049;-72
2021/03/07 06:26:09;;;;;;;6.65;2.40;;;;;;;1.69;81.77;102366.72;6270892;28;20492;-72
2021/03/07 06:29:12;;;;;;;7.65;2.75;;;;;;;1.47;81.05;102358.72;6271104;28;20053;-73
2021/03/07 06:32:17;;;;;;;9.48;2.40;;;;;;;1.52;81.09;102366.53;6270896;28;20056;-72
2021/03/07 06:35:21;;;;;;;9.88;2.67;;;;;;;1.63;80.08;102361.47;6271163;28;20051;-72
2021/03/07 06:38:22;;;;;;;5.97;2.50;;;;;;;1.61;79.86;102361.44;6275663;28;20080;-72
2021/03/07 06:41:24;;;;;;;5.13;2.30;;;;;;;1.68;80.41;102359.78;6276033;28;20052;-73
2021/03/07 06:44:26;;;;;;;5.85;2.30;;;;;;;1.56;79.96;102360.53;6275909;28;20053;-73
2021/03/07 06:47:28;;;;;;;10.32;2.53;;;;;;;1.73;79.99;102361.56;6275895;28;20443;-73
2021/03/07 06:50:29;;;;;;;7.57;2.40;;;;;;;1.47;80.92;102356.13;6275801;28;20049;-73
2021/03/07 06:53:35;;;;;;;5.47;2.63;;;;;;;1.43;81.82;102356.94;6275647;28;20075;-73
2021/03/07 06:56:41;;;;;;;5.05;2.15;;;;;;;1.39;82.76;102355.19;6275462;28;20061;-72
2021/03/07 06:59:48;;;;;;;3.67;2.10;;;;;;;1.39;82.79;102356.91;6251045;28;20045;-73
2021/03/07 07:03:11;;;;;;;7.13;2.10;;;;;;;1.48;82.04;102352.69;6250549;28;20490;-73
2021/03/07 07:06:14;;;;;;;7.40;2.60;;;;;;;1.56;81.07;102346.72;6250846;28;20517;-73
2021/03/07 07:09:24;;;;;;;5.55;2.88;;;;;;;1.51;81.06;102342.38;6250624;28;20456;-73
2021/03/07 07:12:27;;;;;;;10.45;2.42;;;;;;;1.48;81.53;102341.47;6261345;28;20053;-73
2021/03/07 07:15:29;;;;;;;7.15;2.53;;;;;;;1.39;81.37;102336.19;6250341;28;20049;-73
2021/03/07 07:18:32;;;;;;;4.03;2.45;;;;;;;1.43;81.45;102337.97;6271071;28;20049;-73
2021/03/07 07:21:33;;;;;;;7.50;2.42;;;;;;;1.48;80.44;102333.69;6275042;28;20060;-73
2021/03/07 07:24:34;;;;;;;6.05;2.20;;;;;;;1.63;80.11;102346.78;6274700;28;20052;-73
2021/03/07 07:27:35;;;;;;;6.57;2.17;;;;;;;1.66;80.98;102343.34;6274719;28;20460;-73
2021/03/07 07:30:37;;;;;;;7.03;2.70;;;;;;;1.55;81.02;102343.25;6274759;28;20053;-72
2021/03/07 07:33:45;;;;;;;9.55;2.58;;;;;;;1.65;81.51;102346.81;6274515;28;20048;-73
2021/03/07 07:36:51;;;;;;;6.93;3.08;;;;;;;1.50;81.91;102340.63;6274803;28;20049;-72
2021/03/07 07:39:54;;;;;;;6.70;2.60;;;;;;;1.65;82.43;102346.81;6274532;28;20103;-73
2021/03/07 07:42:58;;;;;;;5.93;2.85;;;;;;;1.85;82.24;102334.88;6274306;28;20417;-73
2021/03/07 07:46:12;;;;;;;6.90;2.60;;;;;;;1.73;81.38;102338.25;6274396;28;20049;-73
2021/03/07 07:49:34;;;;;;;4.75;2.55;;;;;;;1.80;80.79;102339.16;6273477;28;20053;-73
2021/03/07 07:52:38;;;;;;;8.32;3.05;;;;;;;1.78;79.59;102335.69;6274302;28;20056;-73
2021/03/07 07:55:45;;;;;;;4.85;2.38;;;;;;;1.90;80.58;102340.97;6273572;28;20053;-72
2021/03/07 07:58:50;;;;;;;8.15;2.53;;;;;;;1.72;78.99;102344.25;6273644;28;20099;-73
2021/03/07 08:01:56;;;;;;;7.85;2.50;;;;;;;1.72;78.97;102338.22;6273486;28;20055;-73
2021/03/07 08:04:57;;;;;;;5.10;2.72;;;;;;;2.11;77.40;102332.50;6274196;28;20049;-73
2021/03/07 08:08:00;;;;;;;10.63;2.22;;;;;;;2.07;78.13;102330.72;6273941;28;20100;-73
2021/03/07 08:11:02;;;;;;;5.30;2.38;;;;;;;1.98;78.78;102330.66;6273887;28;20056;-73
2021/03/07 08:14:03;;;;;;;6.22;2.33;;;;;;;2.14;77.88;102323.88;6273790;28;20041;-73
2021/03/07 08:17:05;;;;;;;7.43;2.55;;;;;;;2.10;77.79;102322.13;6273915;28;20053;-73
2021/03/07 08:20:06;;;;;;;6.07;2.40;;;;;;;2.37;75.42;102322.28;6273765;28;20505;-73
2021/03/07 08:23:08;;;;;;;7.47;2.22;;;;;;;2.23;76.29;102322.22;6273176;28;20049;-73
2021/03/07 08:26:09;;;;;;;5.18;2.63;;;;;;;2.29;76.38;102327.44;6273058;28;20049;-73
2021/03/07 08:29:44;;;;;;;5.15;2.25;;;;;;;2.45;75.42;102314.53;6273082;28;20464;-73
2021/03/07 08:32:46;;;;;;;4.45;2.20;;;;;;;2.23;76.12;102311.84;6273009;28;20057;-73
2021/03/07 08:36:08;;;;;;;3.05;1.92;;;;;;;2.32;75.61;102316.22;6299995;22;20048;-69
2021/03/07 08:39:16;;;;;;;10.15;2.58;;;;;;;2.45;75.21;102302.47;6289463;28;20064;-69
2021/03/07 08:42:28;;;;;;;6.18;2.25;;;;;;;2.44;75.76;102298.09;6297678;28;20052;-69
2021/03/07 08:45:28;;;;;;;6.63;2.30;;;;;;;2.47;74.64;102298.13;6273253;28;20045;-69
2021/03/07 08:48:31;;;;;;;5.07;2.53;;;;;;;2.56;75.17;102302.50;6273068;28;20132;-69
2021/03/07 08:51:35;;;;;;;8.85;3.05;;;;;;;2.58;73.10;102298.16;6295752;28;20053;-67
2021/03/07 08:54:36;;;;;;;3.08;1.85;;;;;;;2.76;73.82;102298.25;6297182;28;20072;-68
2021/03/07 08:57:43;;;;;;;9.70;2.50;;;;;;;2.63;73.61;102293.88;6291214;28;20114;-68
2021/03/07 09:00:45;;;;;;;5.72;1.95;;;;;;;2.63;74.56;102293.00;6280513;28;20052;-68
2021/03/07 09:03:53;;;;;;;8.30;1.85;;;;;;;2.86;74.11;102290.50;6291692;28;20053;-67
2021/03/07 09:06:54;;;;;;;6.30;2.47;;;;;;;2.71;74.39;102289.56;6297134;28;20509;-68
2021/03/07 09:09:55;;;;;;;4.50;2.25;;;;;;;2.80;74.91;102283.56;6297013;28;20052;-69
2021/03/07 09:13:06;;;;;;;4.72;1.80;;;;;;;2.76;73.61;102280.06;6292653;28;20052;-67
2021/03/07 09:16:06;;;;;;;5.63;1.73;;;;;;;2.71;74.25;102280.94;6272133;28;20099;-68
2021/03/07 09:19:24;;;;;;;7.18;1.50;;;;;;;2.86;73.59;102278.41;6272128;28;20510;-68
2021/03/07 09:22:26;;;;;;;7.38;2.42;;;;;;;2.80;72.90;102278.38;6288090;28;20052;-68
2021/03/07 09:25:27;;;;;;;4.53;1.90;;;;;;;2.87;72.78;102274.06;6296862;28;20094;-67
2021/03/07 09:28:33;;;;;;;5.70;1.90;;;;;;;2.87;72.62;102268.88;6281356;28;20045;-67
2021/03/07 09:31:35;;;;;;;6.25;2.00;;;;;;;2.80;73.98;102262.78;6287649;28;20051;-66
2021/03/07 09:34:37;;;;;;;6.60;2.05;;;;;;;2.84;72.39;102271.47;6296347;28;20094;-67
2021/03/07 09:37:37;;;;;;;7.43;2.47;;;;;;;2.82;72.73;102274.06;6285684;28;20045;-68
2021/03/07 09:40:41;;;;;;;5.40;2.17;;;;;;;3.04;72.00;102269.78;6282517;28;20079;-68
2021/03/07 09:43:44;;;;;;;5.32;2.47;;;;;;;2.93;72.87;102271.50;6290446;28;20048;-68
2021/03/07 09:46:47;;;;;;;7.30;2.10;;;;;;;3.04;72.15;102270.66;6296507;28;20049;-67
2021/03/07 09:49:50;;;;;;;9.43;2.67;;;;;;;3.07;70.71;102272.38;6296042;28;20045;-68
2021/03/07 09:52:52;;;;;;;6.40;2.20;;;;;;;2.73;71.62;102256.72;6296321;28;20056;-68
2021/03/07 09:55:53;;;;;;;6.93;2.08;;;;;;;2.87;71.65;102264.56;6296309;28;20090;-68
2021/03/07 09:58:53;;;;;;;7.68;2.60;;;;;;;2.77;72.67;102255.88;6284445;28;20459;-67
2021/03/07 10:01:58;;;;;;;6.20;2.30;;;;;;;2.91;71.15;102261.09;6294528;28;20056;-68
2021/03/07 10:05:10;;;;;;;4.35;2.08;;;;;;;2.96;72.76;102250.72;6294604;28;20056;-68
2021/03/07 10:08:22;;;;;;;4.38;2.30;;;;;;;3.12;71.16;102255.06;6278779;28;20053;-67
2021/03/07 10:11:26;;;;;;;4.93;2.20;;;;;;;2.94;70.59;102249.84;6268981;28;20127;-68
2021/03/07 10:14:29;;;;;;;5.15;2.30;;;;;;;3.02;71.49;102256.78;6269345;28;20077;-68
2021/03/07 10:17:35;;;;;;;5.95;2.47;;;;;;;2.91;71.70;102247.25;6280785;28;20559;-68
2021/03/07 10:20:39;;;;;;;4.78;2.17;;;;;;;2.98;71.54;102255.03;6283054;28;20051;-67
2021/03/07 10:23:40;;;;;;;4.07;2.30;;;;;;;2.89;70.49;102251.56;6278712;28;20060;-68
2021/03/07 10:26:42;;;;;;;4.78;2.83;;;;;;;3.04;72.33;102252.50;6290321;28;20456;-68
2021/03/07 10:29:47;;;;;;;4.40;2.15;;;;;;;2.88;71.28;102255.03;6286936;28;20048;-69
2021/03/07 10:33:06;;;;;;;4.70;2.30;;;;;;;3.01;70.75;102246.41;6282902;28;20086;-69
2021/03/07 10:36:09;;;;;;;8.45;2.72;;;;;;;3.08;70.38;102240.34;6283353;28;20053;-69
2021/03/07 10:39:12;;;;;;;6.32;2.28;;;;;;;2.97;71.19;102242.06;6281522;28;20425;-69
2021/03/07 10:42:13;;;;;;;5.75;2.40;;;;;;;3.12;71.02;102242.09;6281953;28;20048;-68
2021/03/07 10:45:21;;;;;;;9.52;2.78;;;;;;;3.03;70.08;102247.28;6282050;28;20044;-68
2021/03/07 10:48:22;;;;;;;9.50;3.03;;;;;;;2.89;71.56;102239.44;6283557;28;20052;-68
2021/03/07 10:51:24;;;;;;;6.35;2.85;;;;;;;3.14;71.32;102240.38;6282373;28;20098;-68
2021/03/07 10:54:25;;;;;;;7.18;2.85;;;;;;;3.28;70.55;102246.44;6280556;28;20048;-68
2021/03/07 10:57:26;;;;;;;9.20;2.80;;;;;;;3.11;71.03;102237.75;6281930;28;20053;-68
2021/03/07 11:00:27;;;;;;;6.93;3.08;;;;;;;3.35;70.70;102234.31;6281671;28;20053;-69
2021/03/07 11:03:27;;;;;;;7.03;2.88;;;;;;;3.43;70.20;102242.13;6279936;28;20521;-70
2021/03/07 11:06:29;;;;;;;6.85;2.72;;;;;;;3.19;70.51;102241.25;6282714;28;20052;-71
2021/03/07 11:09:30;;;;;;;8.45;2.95;;;;;;;3.23;71.65;102232.59;6280336;28;20056;-71
2021/03/07 11:12:31;;;;;;;4.57;2.60;;;;;;;3.21;71.46;102231.72;6295368;28;20048;-71
2021/03/07 11:15:31;;;;;;;7.57;3.00;;;;;;;3.43;71.81;102232.59;6287038;28;20090;-70
2021/03/07 11:18:32;;;;;;;5.82;3.00;;;;;;;3.34;71.18;102231.72;6281513;28;20128;-70
2021/03/07 11:21:35;;;;;;;8.57;3.20;;;;;;;3.43;71.73;102221.34;6281214;28;20470;-70
2021/03/07 11:24:36;;;;;;;8.88;3.55;;;;;;;3.54;72.10;102224.78;6285232;28;20049;-69
2021/03/07 11:27:37;;;;;;;6.85;3.20;;;;;;;3.61;71.37;102226.53;6284685;28;20524;-69
2021/03/07 11:30:38;;;;;;;8.57;3.50;;;;;;;3.46;70.89;102224.81;6284704;28;20140;-70
2021/03/07 11:33:39;;;;;;;9.70;3.92;;;;;;;3.47;69.73;102215.28;6277979;28;20124;-69
2021/03/07 11:36:40;;;;;;;14.13;4.95;;;;;;;3.40;69.68;102195.34;6294048;28;20052;-71
2021/03/07 11:39:41;;;;;;;9.00;3.42;;;;;;;3.59;70.14;102201.38;6289374;28;20094;-71
2021/03/07 11:42:42;;;;;;;11.40;4.25;;;;;;;4.03;68.84;102196.09;6298896;28;20052;-71
2021/03/07 11:45:43;;;;;;;9.10;3.40;;;;;;;4.30;67.26;102193.41;6284293;28;20044;-70
2021/03/07 11:48:44;;;;;;;9.80;3.47;;;;;;;4.44;67.45;102184.69;6289954;28;20051;-70
2021/03/07 11:51:45;;;;;;;25.98;6.63;;;;;;;4.20;68.99;102170.91;6294972;28;20489;-70
2021/03/07 11:54:46;;;;;;;14.88;3.55;;;;;;;4.48;68.71;102166.44;6296485;28;20048;-70
2021/03/07 11:57:47;;;;;;;12.30;5.40;;;;;;;4.69;65.91;102165.47;6287727;28;20051;-70
2021/03/07 12:00:48;;;;;;;7.10;4.78;;;;;;;4.62;66.00;102166.34;6292398;28;20135;-71
2021/03/07 12:03:49;;;;;;;9.25;4.13;;;;;;;4.44;65.89;102158.66;6297662;28;20062;-71
2021/03/07 12:06:50;;;;;;;10.23;4.78;;;;;;;4.63;65.51;102154.19;6299086;28;20128;-70
2021/03/07 12:09:51;;;;;;;9.73;5.00;;;;;;;4.64;64.79;102148.13;6285842;28;20047;-71
2021/03/07 12:12:53;;;;;;;10.45;5.20;;;;;;;4.74;64.86;102139.38;6284579;28;20053;-70
2021/03/07 12:15:53;;;;;;;11.85;5.10;;;;;;;4.68;63.96;102134.19;6284915;28;20690;-70
2021/03/07 12:18:54;;;;;;;8.02;4.30;;;;;;;4.84;64.63;102135.84;6286132;28;20084;-70
2021/03/07 12:21:56;;;;;;;11.13;4.80;;;;;;;4.73;63.31;102125.50;6284405;28;20122;-71
2021/03/07 12:24:57;;;;;;;10.20;5.05;;;;;;;4.73;64.58;102112.50;6284413;28;20044;-70
2021/03/07 12:27:58;;;;;;;17.48;5.38;;;;;;;4.96;63.61;102116.66;6283385;28;20063;-70
2021/03/07 12:31:00;;;;;;;14.98;6.75;;;;;;;4.73;64.36;102128.09;6283887;28;20044;-71
2021/03/07 12:34:01;;;;;;;11.07;5.45;;;;;;;5.13;63.36;102106.06;6274762;28;20057;-70
2021/03/07 12:37:03;;;;;;;14.20;5.07;;;;;;;5.01;62.78;102104.44;6273098;28;20060;-71
2021/03/07 12:40:05;;;;;;;11.23;4.88;;;;;;;4.97;64.14;102110.56;6273054;28;20053;-74
2021/03/07 12:43:06;;;;;;;13.38;5.60;;;;;;;5.29;64.38;102098.09;6270639;28;20099;-70
2021/03/07 12:46:07;;;;;;;13.68;5.82;;;;;;;5.38;63.23;102093.69;6271714;28;20128;-71
2021/03/07 12:49:09;;;;;;;11.82;5.75;;;;;;;5.33;61.64;102086.78;6287092;28;20052;-70
2021/03/07 12:52:10;;;;;;;16.02;5.88;;;;;;;5.33;61.84;102096.34;6296554;28;20385;-70
2021/03/07 12:55:12;;;;;;;12.30;5.75;;;;;;;5.16;61.87;102082.59;6297311;28;20078;-71
2021/03/07 12:58:13;;;;;;;16.00;7.25;;;;;;;5.11;62.57;102071.38;6297455;28;20048;-70
2021/03/07 13:01:13;;;;;;;13.48;6.60;;;;;;;4.84;63.79;102071.59;6296558;28;20130;-71
2021/03/07 13:04:14;;;;;;;11.80;5.45;;;;;;;5.13;63.01;102066.97;6297241;28;20057;-71
2021/03/07 13:07:16;;;;;;;11.52;6.00;;;;;;;5.08;62.97;102065.28;6275389;28;20067;-70
2021/03/07 13:10:17;;;;;;;11.38;6.05;;;;;;;4.98;63.87;102062.78;6270234;28;20049;-70
2021/03/07 13:13:18;;;;;;;17.63;6.38;;;;;;;4.69;63.63;102061.31;6271309;28;20413;-71
2021/03/07 13:16:19;;;;;;;13.07;5.60;;;;;;;4.64;63.75;102057.88;6272156;28;20049;-71
2021/03/07 13:19:20;;;;;;;10.45;6.05;;;;;;;4.59;63.68;102054.44;6273418;28;20413;-71
2021/03/07 13:22:22;;;;;;;10.45;5.70;;;;;;;4.76;63.86;102044.72;6271974;28;20080;-70
2021/03/07 13:25:22;;;;;;;10.57;5.75;;;;;;;4.54;64.75;102057.09;6272266;28;20056;-71
2021/03/07 13:28:23;;;;;;;15.45;6.38;;;;;;;4.67;65.05;102038.75;6272098;28;20049;-71
2021/03/07 13:31:24;;;;;;;13.55;6.20;;;;;;;4.60;65.33;102039.69;6271946;28;20052;-71
2021/03/07 13:34:25;;;;;;;10.43;6.00;;;;;;;4.67;64.54;102034.41;6271900;28;20052;-71
2021/03/07 13:37:27;;;;;;;13.23;6.50;;;;;;;4.48;65.33;102032.81;6284485;28;20052;-71
2021/03/07 13:40:28;;;;;;;12.95;6.22;;;;;;;4.56;64.88;102031.88;6296195;28;20059;-71
2021/03/07 13:43:28;;;;;;;13.70;6.32;;;;;;;4.53;65.50;102024.09;6294506;28;20499;-71
2021/03/07 13:46:29;;;;;;;15.82;6.00;;;;;;;4.51;66.40;102020.66;6295725;28;20521;-70
2021/03/07 13:49:30;;;;;;;17.88;6.47;;;;;;;4.60;64.67;102032.75;6287064;28;20056;-71
2021/03/07 13:52:32;;;;;;;12.60;6.13;;;;;;;4.51;64.66;102022.41;6271511;28;20061;-70
2021/03/07 13:55:33;;;;;;;11.60;6.43;;;;;;;4.33;65.27;102018.19;6271476;28;20055;-71
2021/03/07 13:58:34;;;;;;;23.17;7.78;;;;;;;4.28;65.90;102018.22;6279381;28;20555;-71
2021/03/07 14:01:35;;;;;;;16.10;7.13;;;;;;;4.39;65.81;102017.28;6286566;28;20414;-71
2021/03/07 14:04:36;;;;;;;18.13;7.30;;;;;;;4.53;65.51;102018.88;6270851;28;20048;-70
2021/03/07 14:07:38;;;;;;;19.13;7.30;;;;;;;4.55;65.67;102009.34;6271164;28;20102;-69
2021/03/07 14:10:39;;;;;;;13.10;6.93;;;;;;;4.35;66.09;102016.44;6270965;28;20142;-71
2021/03/07 14:13:40;;;;;;;14.10;7.35;;;;;;;4.43;66.01;102011.16;6270001;28;20136;-71
2021/03/07 14:16:41;;;;;;;19.80;7.85;;;;;;;4.33;66.49;102015.59;6270715;28;20053;-71